Time;durP1;ratioP1;P1;durP2;ratioP2;P2;SDS_P1;SDS_P2;PMS_P1;PMS_P2;Temp;Humidity;BMP_temperature;BMP_pressure;BME280_temperature;BME280_humidity;BME280_pressure;Samples;Min_cycle;Max_cycle;Signal;HPM_P1;HPM_P2
2022/08/02 00:00:15;;;;;;;10.68;4.70;;;12.30;99.90;;;;;;5103227;27;20047;-83
2022/08/02 00:02:42;;;;;;;9.63;4.82;;;12.30;99.90;;;;;;5107844;27;20086;-83
2022/08/02 00:05:09;;;;;;;11.70;5.25;;;12.20;99.90;;;;;;5104767;27;20106;-82
2022/08/02 00:07:36;;;;;;;13.32;5.45;;;12.20;99.90;;;;;;5069905;27;20047;-83
2022/08/02 00:10:04;;;;;;;9.45;4.72;;;12.30;99.90;;;;;;5105141;27;20085;-83
2022/08/02 00:12:30;;;;;;;12.40;5.13;;;12.20;99.90;;;;;;5057154;27;20035;-83
2022/08/02 00:14:56;;;;;;;11.38;6.00;;;12.10;99.90;;;;;;5085764;27;20043;-83
2022/08/02 00:17:23;;;;;;;9.88;4.93;;;12.20;99.90;;;;;;5090525;27;20039;-83
2022/08/02 00:19:49;;;;;;;9.57;5.28;;;12.20;99.90;;;;;;5072858;27;20228;-83
2022/08/02 00:22:15;;;;;;;9.82;5.35;;;12.20;99.90;;;;;;5064731;27;20145;-83
2022/08/02 00:24:42;;;;;;;9.23;5.68;;;12.20;99.90;;;;;;5074240;27;20042;-82
2022/08/02 00:27:08;;;;;;;9.40;5.68;;;12.20;99.90;;;;;;5104232;27;20110;-82
2022/08/02 00:29:34;;;;;;;10.73;5.05;;;12.20;99.90;;;;;;5076926;27;20039;-82
2022/08/02 00:32:01;;;;;;;11.77;6.15;;;12.20;99.90;;;;;;5067008;27;20394;-82
2022/08/02 00:34:28;;;;;;;10.77;5.63;;;12.20;99.90;;;;;;5070042;27;20063;-83
2022/08/02 00:36:54;;;;;;;12.85;5.90;;;12.20;99.90;;;;;;5086928;27;20043;-83
2022/08/02 00:39:20;;;;;;;8.93;5.50;;;12.20;99.90;;;;;;5072115;27;20050;-82
2022/08/02 00:41:48;;;;;;;10.75;6.15;;;12.20;99.90;;;;;;5063817;27;20058;-83
2022/08/02 00:44:16;;;;;;;9.52;5.53;;;12.10;99.90;;;;;;5095066;27;20118;-83
2022/08/02 00:46:42;;;;;;;12.30;5.72;;;12.10;99.90;;;;;;5078414;27;20035;-83
2022/08/02 00:49:10;;;;;;;12.23;6.28;;;12.10;99.90;;;;;;5084898;27;20043;-83
2022/08/02 00:51:36;;;;;;;9.90;6.32;;;12.10;99.90;;;;;;5089507;27;20099;-83
2022/08/02 00:54:02;;;;;;;13.80;6.68;;;12.00;99.90;;;;;;5088064;27;20047;-83
2022/08/02 00:56:29;;;;;;;12.98;6.95;;;12.10;99.90;;;;;;5039535;27;20047;-83
2022/08/02 00:58:55;;;;;;;8.65;6.63;;;12.10;99.90;;;;;;5088172;27;20042;-83
2022/08/02 01:01:37;;;;;;;12.05;6.43;;;12.00;99.90;;;;;;5070989;27;20099;-83
2022/08/02 01:04:07;;;;;;;9.60;6.40;;;12.00;99.90;;;;;;5056770;27;20080;-83
2022/08/02 01:06:36;;;;;;;10.73;6.35;;;12.00;99.90;;;;;;5068050;27;20553;-82
2022/08/02 01:09:04;;;;;;;10.48;5.68;;;12.00;99.90;;;;;;5081452;27;20039;-82
2022/08/02 01:11:31;;;;;;;11.00;6.00;;;12.00;99.90;;;;;;5084277;27;20611;-83
2022/08/02 01:14:11;;;;;;;11.40;5.80;;;12.00;99.90;;;;;;5089423;27;20054;-82
2022/08/02 01:17:05;;;;;;;9.57;5.95;;;11.90;99.90;;;;;;5103694;27;20073;-82
2022/08/02 01:19:37;;;;;;;9.52;5.85;;;11.90;99.90;;;;;;5082301;27;20075;-82
2022/08/02 01:22:22;;;;;;;11.55;6.50;;;11.90;99.90;;;;;;5084774;27;20133;-83
2022/08/02 01:25:22;;;;;;;12.10;6.32;;;11.90;99.90;;;;;;5064853;27;20039;-82
2022/08/02 01:28:27;;;;;;;14.38;6.38;;;11.90;99.90;;;;;;5082135;27;20077;-82
2022/08/02 01:31:19;;;;;;;9.90;6.35;;;11.80;99.90;;;;;;5087554;27;20050;-82
2022/08/02 01:33:55;;;;;;;14.05;6.80;;;11.90;99.90;;;;;;5065512;27;20047;-83
2022/08/02 01:36:26;;;;;;;10.35;6.30;;;11.90;99.90;;;;;;5092127;27;20130;-83
2022/08/02 01:38:55;;;;;;;12.70;6.38;;;11.90;99.90;;;;;;5086032;27;20080;-82
2022/08/02 01:41:25;;;;;;;12.05;6.57;;;11.90;99.90;;;;;;5070250;27;20043;-83
2022/08/02 01:43:56;;;;;;;13.07;6.65;;;11.90;99.90;;;;;;5069083;27;20070;-82
2022/08/02 01:46:25;;;;;;;11.30;6.40;;;11.90;99.90;;;;;;5075035;27;20047;-82
2022/08/02 01:48:55;;;;;;;9.57;6.07;;;11.90;99.90;;;;;;5105307;27;20051;-82
2022/08/02 01:54:11;;;;;;;12.82;6.65;;;11.90;99.90;;;;;;5054852;27;20510;-82
2022/08/02 01:56:40;;;;;;;12.23;6.43;;;11.90;99.90;;;;;;5066994;27;20050;-82
2022/08/02 01:59:11;;;;;;;14.27;6.70;;;11.80;99.90;;;;;;5104593;27;20047;-81
2022/08/02 02:01:39;;;;;;;12.00;7.70;;;11.80;99.90;;;;;;5082109;27;20118;-82
2022/08/02 02:04:08;;;;;;;15.48;7.18;;;11.90;99.90;;;;;;5102580;27;20065;-82
2022/08/02 02:06:35;;;;;;;9.88;6.95;;;11.80;99.90;;;;;;5103163;27;20046;-81
2022/08/02 02:09:03;;;;;;;10.75;7.53;;;11.80;99.90;;;;;;5084572;27;20038;-82
2022/08/02 02:11:30;;;;;;;14.85;7.40;;;11.80;99.90;;;;;;5083122;27;20539;-82
2022/08/02 02:13:59;;;;;;;13.48;6.72;;;11.80;99.90;;;;;;5087429;27;20034;-82
2022/08/02 02:16:26;;;;;;;13.15;6.85;;;11.70;99.90;;;;;;5064824;27;20049;-81
2022/08/02 02:18:54;;;;;;;11.02;6.43;;;11.70;99.90;;;;;;5069851;27;20376;-82
2022/08/02 02:21:20;;;;;;;12.32;6.68;;;11.70;99.90;;;;;;5080333;27;20046;-79
2022/08/02 02:23:46;;;;;;;9.25;6.45;;;11.60;99.90;;;;;;5104931;27;20847;-81
2022/08/02 02:26:15;;;;;;;10.20;6.80;;;11.60;99.90;;;;;;5040156;27;20409;-82
2022/08/02 02:28:45;;;;;;;12.40;6.88;;;11.60;99.90;;;;;;5081220;27;20068;-82
2022/08/02 02:31:15;;;;;;;14.27;9.15;;;11.60;99.90;;;;;;5065306;27;20095;-82
2022/08/02 02:34:09;;;;;;;12.05;6.90;;;11.60;99.90;;;;;;5082750;27;20047;-82
2022/08/02 02:36:40;;;;;;;13.27;8.05;;;11.60;99.90;;;;;;5074505;27;20050;-82
2022/08/02 02:39:08;;;;;;;13.43;7.70;;;11.50;99.90;;;;;;5066776;27;20767;-82
2022/08/02 02:41:37;;;;;;;11.50;8.00;;;11.50;99.90;;;;;;5113307;27;20716;-82
2022/08/02 02:44:05;;;;;;;13.90;8.07;;;11.60;99.90;;;;;;5102664;27;20099;-82
2022/08/02 02:46:32;;;;;;;14.05;7.93;;;11.60;99.90;;;;;;5062174;27;20039;-82
2022/08/02 02:49:00;;;;;;;14.52;8.07;;;11.60;99.90;;;;;;5069352;27;20077;-81
2022/08/02 02:51:27;;;;;;;13.10;7.97;;;11.60;99.90;;;;;;5067058;27;20092;-81
2022/08/02 02:53:54;;;;;;;12.60;8.10;;;11.60;99.90;;;;;;5059299;27;20570;-82
2022/08/02 02:56:21;;;;;;;12.98;8.18;;;11.60;99.90;;;;;;5055387;27;20048;-81
2022/08/02 02:58:47;;;;;;;13.88;7.53;;;11.60;99.90;;;;;;5084233;27;20078;-85
2022/08/02 03:01:26;;;;;;;15.88;8.50;;;11.70;99.90;;;;;;5082686;28;20050;-82
2022/08/02 03:03:54;;;;;;;14.52;7.88;;;11.70;99.90;;;;;;5100847;27;20168;-82
2022/08/02 03:06:21;;;;;;;12.00;7.88;;;11.70;99.90;;;;;;5064660;27;20035;-82
2022/08/02 03:08:47;;;;;;;14.40;7.65;;;11.70;99.90;;;;;;5062881;27;20540;-82
2022/08/02 03:11:14;;;;;;;13.98;8.40;;;11.70;99.90;;;;;;5064388;27;20166;-82
2022/08/02 03:13:41;;;;;;;13.63;7.78;;;11.70;99.90;;;;;;5082916;27;20058;-82
2022/08/02 03:16:07;;;;;;;15.00;8.25;;;11.70;99.90;;;;;;5102692;27;20053;-82
2022/08/02 03:18:39;;;;;;;14.88;8.23;;;11.70;99.90;;;;;;5099896;27;20450;-82
2022/08/02 03:21:07;;;;;;;;;;;11.70;99.90;;;;;;5083314;27;20103;-83
2022/08/02 03:23:33;;;;;;;14.68;7.97;;;11.70;99.90;;;;;;5083818;27;20394;-82
2022/08/02 03:26:01;;;;;;;11.05;8.15;;;11.60;99.90;;;;;;5103059;27;20513;-82
2022/08/02 03:28:27;;;;;;;12.15;8.40;;;11.60;99.90;;;;;;5087891;27;20058;-82
2022/08/02 03:30:53;;;;;;;11.25;8.15;;;11.50;99.90;;;;;;5082964;27;20577;-83
2022/08/02 03:33:21;;;;;;;12.25;7.88;;;11.60;99.90;;;;;;5102495;27;20133;-82
2022/08/02 03:35:48;;;;;;;13.88;8.15;;;11.60;99.90;;;;;;5087417;27;20503;-83
2022/08/02 03:38:17;;;;;;;16.10;7.60;;;11.50;99.90;;;;;;5085556;27;20039;-82
2022/08/02 03:40:45;;;;;;;16.05;7.93;;;11.50;99.90;;;;;;5123598;27;20862;-82
2022/08/02 03:43:11;;;;;;;16.77;8.40;;;11.60;99.90;;;;;;5087292;27;20138;-82
2022/08/02 03:45:41;;;;;;;16.45;8.70;;;11.50;99.90;;;;;;5082897;27;20760;-82
2022/08/02 03:48:09;;;;;;;13.70;9.77;;;11.60;99.90;;;;;;5074716;27;20065;-83
2022/08/02 03:50:36;;;;;;;17.67;9.02;;;11.60;99.90;;;;;;5070259;27;20418;-82
2022/08/02 03:53:03;;;;;;;13.25;8.43;;;11.60;99.90;;;;;;5083923;27;20039;-83
2022/08/02 03:55:30;;;;;;;11.30;7.65;;;11.60;99.90;;;;;;5091262;27;20395;-82
2022/08/02 03:57:56;;;;;;;9.80;7.57;;;11.60;99.90;;;;;;5107571;27;20031;-82
2022/08/02 04:00:22;;;;;;;15.48;8.55;;;11.60;99.90;;;;;;5074243;27;20410;-82
2022/08/02 04:02:48;;;;;;;14.20;8.88;;;11.60;99.90;;;;;;5086016;27;20753;-82
2022/08/02 04:05:15;;;;;;;14.13;8.55;;;11.60;99.90;;;;;;5073656;27;20086;-82
2022/08/02 04:07:42;;;;;;;16.85;8.07;;;11.60;99.90;;;;;;5057020;27;20038;-82
2022/08/02 04:10:09;;;;;;;16.50;9.23;;;11.70;99.90;;;;;;5087937;27;20039;-83
2022/08/02 04:12:36;;;;;;;14.80;9.30;;;11.70;99.90;;;;;;5088063;27;20506;-82
2022/08/02 04:15:07;;;;;;;13.93;8.35;;;11.80;99.90;;;;;;5089162;27;20054;-82
2022/08/02 04:17:44;;;;;;;15.40;9.57;;;11.80;99.90;;;;;;5075567;27;20051;-82
2022/08/02 04:20:18;;;;;;;15.98;9.00;;;11.80;99.90;;;;;;5104819;27;20070;-82
2022/08/02 04:22:47;;;;;;;15.80;9.70;;;11.80;99.90;;;;;;5071414;27;20126;-82
2022/08/02 04:25:14;;;;;;;18.33;9.32;;;11.90;99.90;;;;;;5070095;27;20043;-82
2022/08/02 04:27:42;;;;;;;13.52;8.30;;;11.90;99.90;;;;;;5104245;27;20179;-82
2022/08/02 04:30:09;;;;;;;15.52;9.70;;;11.90;99.90;;;;;;5068154;27;20874;-82
2022/08/02 04:32:35;;;;;;;16.13;9.25;;;11.90;99.90;;;;;;5086501;27;20078;-82
2022/08/02 04:35:02;;;;;;;16.17;9.10;;;12.00;99.90;;;;;;5071643;27;20038;-83
2022/08/02 04:37:32;;;;;;;15.82;9.50;;;12.00;99.90;;;;;;5087990;27;20098;-83
2022/08/02 04:39:58;;;;;;;15.88;9.13;;;12.10;99.90;;;;;;5099149;27;20052;-83
2022/08/02 04:42:25;;;;;;;15.10;9.65;;;12.00;99.90;;;;;;5087641;27;20047;-82
2022/08/02 04:44:53;;;;;;;14.48;9.27;;;12.10;99.90;;;;;;5087508;27;20095;-82
2022/08/02 04:47:20;;;;;;;19.90;9.73;;;12.20;99.90;;;;;;5066056;27;20046;-82
2022/08/02 04:49:46;;;;;;;13.82;8.50;;;12.20;99.90;;;;;;5065117;27;20045;-82
2022/08/02 04:52:13;;;;;;;13.27;8.43;;;12.30;99.90;;;;;;5069194;27;20045;-82
2022/08/02 04:54:39;;;;;;;13.77;8.68;;;12.40;99.90;;;;;;5086805;27;20069;-83
2022/08/02 04:57:53;;;;;;;14.43;9.00;;;12.40;99.90;;;;;;5038016;27;20051;-83
2022/08/02 04:59:51;;;;;;;15.45;8.75;;;12.50;99.90;;;;;;5086791;27;20050;-83
2022/08/02 05:02:17;;;;;;;14.20;8.55;;;12.50;99.90;;;;;;5088416;27;20043;-83
2022/08/02 05:04:43;;;;;;;19.92;9.95;;;12.50;99.90;;;;;;5054914;27;20047;-84
2022/08/02 05:07:10;;;;;;;14.13;9.18;;;12.60;99.90;;;;;;5066182;27;20039;-82
2022/08/02 05:09:36;;;;;;;15.73;9.95;;;12.50;99.90;;;;;;5086339;27;20038;-82
2022/08/02 05:12:02;;;;;;;14.95;10.15;;;12.60;99.90;;;;;;5069773;27;20039;-89
2022/08/02 05:14:28;;;;;;;16.02;9.38;;;12.90;99.90;;;;;;5070714;27;20039;-83
2022/08/02 05:16:55;;;;;;;14.00;9.07;;;13.20;99.90;;;;;;5088634;27;20042;-81
2022/08/02 05:19:21;;;;;;;15.02;9.25;;;13.60;99.90;;;;;;5057255;27;20038;-83
2022/08/02 05:21:47;;;;;;;12.30;8.32;;;14.00;99.90;;;;;;5053652;27;20057;-83
2022/08/02 05:24:13;;;;;;;12.73;7.78;;;14.30;99.90;;;;;;5073459;27;20046;-83
2022/08/02 05:26:39;;;;;;;12.13;7.43;;;14.60;99.90;;;;;;5068211;27;20134;-83
2022/08/02 05:29:05;;;;;;;12.93;8.00;;;14.80;99.90;;;;;;5082885;27;20046;-83
2022/08/02 05:31:31;;;;;;;9.45;7.03;;;15.00;99.90;;;;;;5075886;27;20035;-82
2022/08/02 05:33:57;;;;;;;15.15;7.32;;;15.10;99.90;;;;;;5053525;27;20054;-83
2022/08/02 05:36:23;;;;;;;10.30;6.70;;;15.30;99.90;;;;;;5073632;27;20129;-83
2022/08/02 05:38:49;;;;;;;12.57;6.80;;;15.50;99.90;;;;;;5041519;27;20043;-83
2022/08/02 05:41:18;;;;;;;10.15;6.72;;;15.60;99.90;;;;;;5064240;27;20039;-85
2022/08/02 05:43:45;;;;;;;10.80;6.63;;;15.70;99.90;;;;;;5096735;27;20796;-84
2022/08/02 05:46:11;;;;;;;11.23;6.53;;;15.80;99.90;;;;;;5093891;27;20080;-83
2022/08/02 05:48:37;;;;;;;8.77;6.15;;;15.80;99.90;;;;;;5063095;27;20082;-83
2022/08/02 05:51:30;;;;;;;11.25;6.47;;;15.90;99.90;;;;;;5115403;27;20757;-83
2022/08/02 05:54:18;;;;;;;11.27;5.97;;;15.90;99.90;;;;;;5093278;27;20039;-83
2022/08/02 05:57:00;;;;;;;11.63;6.20;;;16.10;99.90;;;;;;5090469;27;20467;-84
2022/08/02 05:59:37;;;;;;;10.55;6.25;;;16.20;99.90;;;;;;5078099;27;20042;-89
2022/08/02 06:02:35;;;;;;;9.48;5.65;;;16.40;99.90;;;;;;5088987;27;20039;-86
2022/08/02 06:05:12;;;;;;;12.18;6.03;;;16.40;99.90;;;;;;5082792;27;20234;-85
2022/08/02 06:07:44;;;;;;;7.78;5.10;;;16.70;99.90;;;;;;5130297;27;20062;-86
2022/08/02 06:10:12;;;;;;;9.68;5.05;;;16.90;99.90;;;;;;5085558;27;20043;-85
2022/08/02 06:13:00;;;;;;;10.82;5.78;;;17.20;99.90;;;;;;5085725;27;20088;-85
2022/08/02 06:15:26;;;;;;;10.30;4.43;;;17.30;99.90;;;;;;5115493;27;20046;-85
2022/08/02 06:17:53;;;;;;;10.00;4.50;;;17.30;99.90;;;;;;5092188;27;20051;-84
2022/08/02 06:20:20;;;;;;;7.80;3.83;;;17.60;99.90;;;;;;5069864;27;20081;-86
2022/08/02 06:22:46;;;;;;;9.40;3.53;;;17.80;99.90;;;;;;5076333;27;20066;-85
2022/08/02 06:25:13;;;;;;;11.38;5.22;;;17.80;99.90;;;;;;5090945;27;20667;-85
2022/08/02 06:27:40;;;;;;;8.20;3.65;;;17.90;99.90;;;;;;5085106;27;20054;-84
2022/08/02 06:30:08;;;;;;;8.30;4.25;;;18.00;99.90;;;;;;5091171;27;20118;-84
2022/08/02 06:32:35;;;;;;;7.50;3.97;;;18.00;99.90;;;;;;5072071;27;20116;-84
2022/08/02 06:35:03;;;;;;;11.05;3.75;;;18.30;99.90;;;;;;5076721;27;20099;-84
2022/08/02 06:37:32;;;;;;;8.52;3.90;;;18.40;99.90;;;;;;5092957;27;20042;-87
2022/08/02 06:40:06;;;;;;;6.38;3.20;;;18.60;99.90;;;;;;5069067;27;20050;-89
2022/08/02 06:42:43;;;;;;;6.55;3.85;;;18.70;99.90;;;;;;5069241;27;20074;-87
2022/08/02 06:45:09;;;;;;;7.53;3.65;;;18.80;99.90;;;;;;5088703;27;20059;-86
2022/08/02 06:47:35;;;;;;;7.47;3.90;;;18.90;99.90;;;;;;5060725;27;20043;-86
2022/08/02 06:50:02;;;;;;;10.73;4.05;;;18.90;99.90;;;;;;5063669;27;20038;-87
2022/08/02 06:52:32;;;;;;;8.95;4.13;;;19.00;99.90;;;;;;5075357;27;20461;-86
2022/08/02 06:55:00;;;;;;;6.28;3.45;;;19.00;99.90;;;;;;5106251;27;20054;-86
2022/08/02 06:57:28;;;;;;;7.60;3.30;;;19.00;99.90;;;;;;5094641;27;20141;-88
2022/08/02 06:59:54;;;;;;;8.88;3.72;;;19.10;99.90;;;;;;5073218;27;20486;-92
2022/08/02 07:02:21;;;;;;;7.40;3.45;;;19.20;99.90;;;;;;5041885;27;20111;-85
2022/08/02 07:04:47;;;;;;;8.68;3.92;;;19.40;99.90;;;;;;5089198;27;20123;-84
2022/08/02 07:07:13;;;;;;;7.57;3.38;;;19.60;99.90;;;;;;5057344;27;20077;-84
2022/08/02 07:09:40;;;;;;;8.93;3.45;;;20.00;99.90;;;;;;5037451;27;20043;-84
2022/08/02 07:12:06;;;;;;;6.45;3.22;;;20.20;99.90;;;;;;5054859;28;20591;-84
2022/08/02 07:14:32;;;;;;;6.57;3.00;;;20.50;99.90;;;;;;5107333;27;20111;-84
2022/08/02 07:16:58;;;;;;;7.78;3.90;;;20.70;99.90;;;;;;5068019;28;20054;-84
2022/08/02 07:19:25;;;;;;;7.50;2.92;;;20.90;99.90;;;;;;5083484;27;20043;-84
2022/08/02 07:21:51;;;;;;;6.85;2.72;;;21.10;99.90;;;;;;5079341;27;20139;-84
2022/08/02 07:24:17;;;;;;;6.78;2.75;;;21.30;99.90;;;;;;5088626;28;20078;-83
2022/08/02 07:26:43;;;;;;;9.90;3.17;;;21.20;99.90;;;;;;5056973;27;20206;-84
2022/08/02 07:29:09;;;;;;;7.40;2.40;;;21.20;99.90;;;;;;5045115;27;20050;-84
2022/08/02 07:31:35;;;;;;;8.10;2.63;;;21.10;99.90;;;;;;5054664;27;20086;-82
2022/08/02 07:34:01;;;;;;;8.48;2.70;;;20.90;99.90;;;;;;5079765;27;20517;-83
2022/08/02 07:36:28;;;;;;;9.40;2.88;;;20.80;99.90;;;;;;5071213;27;20046;-83
2022/08/02 07:38:54;;;;;;;5.50;2.40;;;20.90;99.90;;;;;;5087748;27;20053;-83
2022/08/02 07:41:20;;;;;;;8.10;2.60;;;21.10;99.90;;;;;;5067151;27;20079;-83
2022/08/02 07:43:46;;;;;;;9.48;4.68;;;21.50;99.90;;;;;;5046299;28;20095;-83
2022/08/02 07:46:12;;;;;;;4.93;2.20;;;21.90;99.90;;;;;;5097028;27;20080;-83
2022/08/02 07:48:38;;;;;;;6.57;2.10;;;22.00;99.90;;;;;;5087275;27;20043;-82
2022/08/02 07:51:04;;;;;;;5.30;2.22;;;22.30;99.90;;;;;;5072528;27;20461;-83
2022/08/02 07:53:30;;;;;;;5.55;2.78;;;22.40;99.90;;;;;;5089824;27;20573;-83
2022/08/02 07:55:56;;;;;;;7.32;2.15;;;22.70;99.90;;;;;;5052655;27;20047;-83
2022/08/02 07:58:22;;;;;;;6.15;2.30;;;22.80;99.90;;;;;;5103757;27;20039;-83
2022/08/02 08:00:49;;;;;;;7.32;2.47;;;23.10;99.90;;;;;;5089927;27;20063;-84
2022/08/02 08:03:15;;;;;;;8.32;4.78;;;23.30;99.90;;;;;;5056075;27;20121;-83
2022/08/02 08:05:41;;;;;;;8.40;2.53;;;23.30;99.90;;;;;;5070806;27;20534;-82
2022/08/02 08:08:07;;;;;;;6.82;2.13;;;23.70;99.90;;;;;;5056214;27;20046;-83
2022/08/02 08:10:33;;;;;;;7.15;3.30;;;23.90;99.90;;;;;;5105499;27;20070;-83
2022/08/02 08:12:59;;;;;;;6.28;2.10;;;23.70;99.90;;;;;;5043061;27;20077;-83
2022/08/02 08:15:25;;;;;;;5.60;1.88;;;24.00;99.90;;;;;;5069843;27;20162;-83
2022/08/02 08:17:52;;;;;;;5.60;1.70;;;24.30;99.90;;;;;;5072971;27;20042;-83
2022/08/02 08:20:18;;;;;;;7.50;2.22;;;24.20;99.90;;;;;;5071473;27;20122;-87
2022/08/02 08:22:44;;;;;;;5.90;2.30;;;24.50;99.90;;;;;;5081705;27;20093;-88
2022/08/02 08:25:10;;;;;;;8.05;5.57;;;24.60;99.90;;;;;;5098012;27;20491;-85
2022/08/02 08:27:36;;;;;;;3.75;1.65;;;24.90;99.90;;;;;;5036526;27;20553;-86
2022/08/02 08:30:03;;;;;;;5.35;1.52;;;25.30;99.90;;;;;;5084088;27;20079;-87
2022/08/02 08:32:29;;;;;;;4.20;1.50;;;25.60;99.90;;;;;;5102923;27;20043;-87
2022/08/02 08:34:55;;;;;;;3.17;1.45;;;25.60;97.90;;;;;;5063106;27;20094;-86
2022/08/02 08:37:21;;;;;;;4.45;1.70;;;25.90;99.30;;;;;;5055744;27;20625;-85
2022/08/02 08:39:48;;;;;;;4.75;1.55;;;25.80;98.90;;;;;;5058680;27;20458;-88
2022/08/02 08:42:17;;;;;;;6.40;2.25;;;25.70;98.90;;;;;;5090234;27;20046;-90
2022/08/02 08:44:44;;;;;;;6.53;3.20;;;25.80;94.40;;;;;;5047085;27;20145;-90
2022/08/02 08:47:10;;;;;;;5.07;1.70;;;25.90;95.70;;;;;;5076881;27;20071;-86
2022/08/02 08:49:43;;;;;;;6.35;1.83;;;26.00;95.60;;;;;;5041047;27;20634;-86
2022/08/02 08:52:12;;;;;;;4.03;1.67;;;26.10;94.00;;;;;;5088817;27;20035;-87
2022/08/02 08:54:42;;;;;;;5.22;1.75;;;26.40;96.30;;;;;;5074094;27;20074;-90
2022/08/02 08:57:09;;;;;;;6.25;2.35;;;26.40;93.10;;;;;;5093517;27;20045;-86
2022/08/02 08:59:35;;;;;;;4.55;1.60;;;26.70;92.70;;;;;;5091068;27;20050;-88
2022/08/02 09:02:02;;;;;;;5.80;2.03;;;27.00;95.40;;;;;;5072811;27;20057;-89
2022/08/02 09:04:30;;;;;;;8.23;4.90;;;27.00;91.60;;;;;;5050991;27;20050;-87
2022/08/02 09:06:56;;;;;;;2.83;1.48;;;27.20;88.00;;;;;;5069622;27;20079;-88
2022/08/02 09:09:22;;;;;;;5.13;2.67;;;27.20;88.50;;;;;;5054232;27;20038;-88
2022/08/02 09:11:48;;;;;;;3.10;1.40;;;27.40;86.90;;;;;;5087404;27;20043;-88
2022/08/02 09:14:26;;;;;;;4.95;1.35;;;27.60;87.10;;;;;;5049413;27;20517;-84
2022/08/02 09:16:53;;;;;;;3.72;1.38;;;27.90;77.20;;;;;;5101106;27;20567;-94
2022/08/02 09:19:22;;;;;;;2.78;1.15;;;28.00;69.60;;;;;;5065031;27;20053;-82
2022/08/02 09:22:10;;;;;;;5.05;1.38;;;28.10;69.50;;;;;;5095973;27;20064;-83
2022/08/02 09:24:47;;;;;;;5.40;1.50;;;28.10;65.90;;;;;;5074834;27;20478;-82
2022/08/02 09:27:18;;;;;;;5.10;3.50;;;28.50;68.00;;;;;;5095350;27;20068;-89
2022/08/02 09:29:45;;;;;;;3.97;1.60;;;28.60;64.50;;;;;;5101941;27;20454;-89
2022/08/02 09:32:12;;;;;;;3.63;1.45;;;28.60;65.40;;;;;;5063923;27;20031;-87
2022/08/02 09:34:50;;;;;;;10.30;4.57;;;28.80;64.30;;;;;;5047092;27;20134;-88
2022/08/02 09:37:30;;;;;;;5.30;1.63;;;28.90;57.90;;;;;;5065058;27;20074;-85
2022/08/02 09:40:02;;;;;;;3.63;1.58;;;29.10;60.60;;;;;;5070716;27;20047;-86
2022/08/02 09:42:28;;;;;;;4.30;2.63;;;29.40;63.40;;;;;;5087880;27;20051;-87
2022/08/02 09:44:59;;;;;;;5.22;2.45;;;29.40;60.60;;;;;;5032910;27;20143;-89
2022/08/02 09:47:27;;;;;;;6.35;2.22;;;29.30;61.00;;;;;;5073421;27;20039;-87
2022/08/02 09:49:54;;;;;;;4.43;2.13;;;29.50;63.30;;;;;;5088270;27;20759;-87
2022/08/02 09:52:31;;;;;;;5.35;2.45;;;29.30;61.60;;;;;;5067606;27;20039;-88
2022/08/02 09:55:05;;;;;;;6.75;4.88;;;29.30;63.30;;;;;;5065592;27;20042;-86
2022/08/02 09:57:37;;;;;;;5.80;2.38;;;29.10;62.20;;;;;;5104459;27;20051;-91
2022/08/02 10:00:09;;;;;;;3.92;1.83;;;29.10;65.70;;;;;;5074905;27;20050;-89
2022/08/02 10:02:38;;;;;;;6.30;2.22;;;29.60;68.10;;;;;;5082464;27;20050;-87
2022/08/02 10:05:05;;;;;;;6.78;2.30;;;29.80;67.00;;;;;;5062841;27;20870;-87
2022/08/02 10:07:32;;;;;;;5.75;2.97;;;29.70;65.30;;;;;;5090329;27;20039;-89
2022/08/02 10:09:58;;;;;;;5.03;2.15;;;30.00;64.70;;;;;;5070693;27;20079;-87
2022/08/02 10:12:25;;;;;;;5.70;2.25;;;29.30;67.50;;;;;;5089176;27;20049;-86
2022/08/02 10:14:52;;;;;;;5.82;3.80;;;29.30;72.90;;;;;;5089557;27;20081;-89
2022/08/02 10:17:19;;;;;;;5.88;2.13;;;29.40;73.10;;;;;;5074119;27;20058;-86
2022/08/02 10:19:47;;;;;;;5.40;2.25;;;29.40;75.00;;;;;;5070720;27;20134;-86
2022/08/02 10:22:14;;;;;;;6.13;3.22;;;29.40;76.20;;;;;;5090468;27;20035;-88
2022/08/02 10:24:41;;;;;;;7.53;2.88;;;29.40;75.40;;;;;;5090071;27;20034;-88
2022/08/02 10:27:15;;;;;;;5.78;3.42;;;29.80;72.30;;;;;;5072599;27;20537;-89
2022/08/02 10:29:42;;;;;;;7.32;3.47;;;30.00;80.40;;;;;;5070853;27;20043;-88
2022/08/02 10:32:10;;;;;;;4.72;3.22;;;30.10;77.80;;;;;;5054464;27;20099;-86
2022/08/02 10:34:48;;;;;;;6.57;2.30;;;30.10;72.20;;;;;;5103030;27;20046;-88
2022/08/02 10:37:16;;;;;;;5.78;2.97;;;30.30;72.70;;;;;;5068935;27;20410;-89
2022/08/02 10:39:44;;;;;;;5.70;2.30;;;30.60;70.90;;;;;;5089571;27;20137;-88
2022/08/02 10:42:12;;;;;;;5.63;2.63;;;30.60;66.30;;;;;;5104941;27;20052;-88
2022/08/02 10:44:39;;;;;;;6.28;2.58;;;30.60;65.40;;;;;;5059116;28;20055;-87
2022/08/02 10:47:24;;;;;;;5.85;2.28;;;30.40;65.60;;;;;;5052154;28;20058;-86
2022/08/02 10:49:54;;;;;;;6.60;3.40;;;29.90;62.60;;;;;;5088116;28;20126;-90
2022/08/02 10:52:22;;;;;;;7.72;3.50;;;29.70;68.60;;;;;;5093536;28;20049;-87
2022/08/02 10:54:56;;;;;;;6.82;4.40;;;30.00;65.70;;;;;;5106968;28;20043;-89
2022/08/02 10:57:27;;;;;;;7.47;4.72;;;30.30;64.00;;;;;;5077237;28;20016;-89
2022/08/02 10:59:56;;;;;;;13.00;5.45;;;30.30;66.10;;;;;;5066828;28;20071;-89
2022/08/02 11:02:55;;;;;;;5.82;3.22;;;30.70;64.50;;;;;;5077821;28;20098;-89
2022/08/02 11:05:29;;;;;;;4.38;2.53;;;30.90;68.50;;;;;;5089769;28;20043;-90
2022/08/02 11:07:55;;;;;;;6.05;2.60;;;31.10;60.40;;;;;;5072784;28;20075;-88
2022/08/02 11:10:30;;;;;;;7.47;3.83;;;31.00;60.30;;;;;;5073042;28;20498;-90
2022/08/02 11:13:12;;;;;;;7.53;3.85;;;31.10;58.80;;;;;;5048444;28;20075;-89
2022/08/02 11:16:01;;;;;;;7.22;2.58;;;31.40;59.20;;;;;;5068189;28;20055;-89
2022/08/02 11:18:42;;;;;;;5.65;3.17;;;31.80;59.70;;;;;;5050943;28;20495;-86
2022/08/02 11:21:23;;;;;;;4.43;2.50;;;31.20;57.10;;;;;;5056327;28;20067;-87
2022/08/02 11:23:51;;;;;;;5.00;2.63;;;31.30;60.10;;;;;;5075088;28;20051;-87
2022/08/02 11:26:29;;;;;;;5.47;2.55;;;31.20;59.80;;;;;;5080021;28;20123;-88
2022/08/02 11:28:57;;;;;;;5.93;3.83;;;30.60;59.70;;;;;;5101260;28;20044;-88
2022/08/02 11:31:23;;;;;;;7.93;3.13;;;30.40;61.00;;;;;;5095360;28;20040;-88
2022/08/02 11:33:51;;;;;;;5.82;2.55;;;30.20;62.20;;;;;;5065077;28;20048;-88
2022/08/02 11:36:17;;;;;;;6.95;3.35;;;30.50;60.80;;;;;;5050375;28;20046;-86
2022/08/02 11:38:44;;;;;;;8.32;2.70;;;30.10;63.00;;;;;;5029660;28;20480;-90
2022/08/02 11:41:21;;;;;;;6.18;3.05;;;30.10;63.80;;;;;;5047200;28;20796;-89
2022/08/02 11:43:54;;;;;;;6.28;3.55;;;30.00;69.30;;;;;;5066100;28;20036;-90
2022/08/02 11:46:20;;;;;;;14.40;13.02;;;30.00;65.10;;;;;;5084284;28;20047;-87
2022/08/02 11:48:46;;;;;;;10.07;7.45;;;30.10;65.60;;;;;;5064242;28;20059;-86
2022/08/02 11:51:16;;;;;;;8.98;8.02;;;30.10;63.60;;;;;;5064718;28;20044;-84
2022/08/02 11:53:56;;;;;;;5.57;2.85;;;30.70;61.30;;;;;;5051132;28;20114;-87
2022/08/02 11:56:31;;;;;;;3.22;2.00;;;31.00;56.60;;;;;;5054283;28;20116;-87
2022/08/02 11:59:05;;;;;;;3.38;1.92;;;30.70;55.50;;;;;;5080418;28;20052;-91
2022/08/02 12:01:32;;;;;;;4.03;2.30;;;30.60;56.10;;;;;;5065822;28;20052;-89
2022/08/02 12:04:02;;;;;;;2.15;1.52;;;30.80;57.70;;;;;;5051587;28;20040;-88
2022/08/02 12:06:29;;;;;;;3.83;2.38;;;31.20;56.80;;;;;;5083434;28;20484;-89
2022/08/02 12:09:10;;;;;;;2.63;1.42;;;31.30;55.70;;;;;;5070827;28;20044;-90
2022/08/02 12:11:37;;;;;;;3.55;1.50;;;31.80;57.00;;;;;;5084127;28;20047;-91
2022/08/02 12:14:05;;;;;;;2.75;1.58;;;31.70;57.10;;;;;;5051657;28;20587;-87
2022/08/02 12:19:26;;;;;;;5.13;3.28;;;31.40;56.80;;;;;;5068482;28;20039;-88
2022/08/02 12:22:11;;;;;;;7.22;4.28;;;30.90;58.30;;;;;;5067540;28;20504;-87
2022/08/02 12:24:39;;;;;;;3.78;2.38;;;31.10;61.90;;;;;;5056472;28;20566;-87
2022/08/02 12:27:06;;;;;;;4.00;2.42;;;30.80;60.50;;;;;;5091561;27;20082;-87
2022/08/02 12:29:37;;;;;;;5.68;2.28;;;30.60;59.20;;;;;;5059582;28;20051;-87
2022/08/02 12:32:05;;;;;;;4.07;1.83;;;30.70;61.30;;;;;;5065497;28;20040;-88
2022/08/02 12:34:33;;;;;;;4.85;2.58;;;30.90;60.60;;;;;;5054634;28;20166;-84
2022/08/02 12:37:06;;;;;;;4.57;2.83;;;31.20;59.80;;;;;;5065689;28;20503;-87
2022/08/02 12:39:44;;;;;;;6.40;4.03;;;31.00;59.80;;;;;;5051723;28;20051;-87
2022/08/02 12:42:13;;;;;;;4.97;2.80;;;31.00;60.90;;;;;;5067685;28;20044;-87
2022/08/02 12:44:57;;;;;;;5.03;3.13;;;31.00;62.40;;;;;;5055375;28;20120;-87
2022/08/02 12:47:24;;;;;;;5.13;2.30;;;30.40;62.60;;;;;;5074135;27;20050;-89
2022/08/02 12:50:10;;;;;;;7.32;3.90;;;29.90;63.40;;;;;;5070225;28;20043;-88
2022/08/02 12:52:36;;;;;;;4.70;3.55;;;29.70;68.10;;;;;;5103745;27;20122;-86
2022/08/02 12:55:22;;;;;;;4.75;3.03;;;29.60;69.50;;;;;;5078368;27;20050;-87
2022/08/02 12:57:55;;;;;;;4.75;2.03;;;29.40;70.30;;;;;;5080397;27;20138;-87
2022/08/02 13:00:23;;;;;;;4.70;2.05;;;29.10;75.00;;;;;;5077357;28;20047;-87